Portada
METAR-TAF:

METAR-TAF

Aeroports :

Trang, Tailàndia

latitud: 07-31N, longitud: 099-37E, altitud: 14 m

Observació

L'informe es va fer fa 7 hores i 6 minuts, a les 13:00 UTC
Vent 2 kt amb direcció variable
Temperatura 27°C
Humitat 89%
Pressió 1008 hPa
Visibilitat 10 km o més
Escasses núvols a una alçada de 2000 ft

METAR: VTST 291300Z VRB02KT 9999 FEW020 27/25 Q1008 NOSIG

Hora: 03:06 (20:06 UTC)

Pronòstic

L'informe es va fer fa 3 hores i 6 minuts, a les 17:00 UTC
Pronòstic vàlid del 29 a les 18 UTC al 30 a les 18 UTC
Vent kt del Nord
Visibilitat 10 km o més
Escasses núvols a una alçada de 2000 ft
Evolucionant progressivament
l' 30 a les 02 UTC al 30 a les 04 UTC
Vent 6 kt del Sud
Evolucionant progressivament
l' 30 a les 12 UTC al 30 a les 14 UTC
Vent kt del Nord

TAF: VTST 291700Z 2918/3018 00000KT 9999 FEW020 BECMG 3002/3004 18006KT BECMG 3012/3014 00000KT

Observacions i pronòstics meteorològics de més de 4000 aeroports (METAR i TAF).

Les estacions disponibles són els punts grocs i vermells al mapa.

Posi el ratolí al punt desitjat per veure el nom de l'estació.

Feu clic per veure les observacions i els pronòstics meteorològics.

Per canviar el mapa: feu clic els botons verds amb una creu de color negre per apropar; al botó verd amb un guió per allunyar la imatge; o en les fletxes verdes per a mapes adjacents.


METAR-TAF: